Jamison, Pennsylvania
Current Conditions -  °F | °C
As of 2:22 AM on Thursday 23 Oct 2014 (Local Time) from KDYL Reporting Station
Overcast Overcast  
Wind Chill: 50°   Ceiling: 2800
Heat Index: 50°   Visibility: 10mi
Dew Point: 47°   Wind: 13mph
Humidity: 89%   Direction: 360°N
Pressure: 29.76"   Gusts: 22mph
Location:  40.27°N, 75.1°W
Report Text: KDYL 230622Z AUTO 36011G19KT 10SM BKN028 OVC033 10/08 A2976 RMK AO2 RAE0559 P0000 T01000083 $
Loading
Personal Weather Stations






























Interactive Weather Map
Tropical Storm Tracking
New forecast layout! Learn more

10-Day Weather Forecast

Advertisements
Track Severe Weather on mobile